Airfield :







YOU CAN JOIN US ON...

 
LOGIN :

Register | Disclaimer

   EN    FR    IT 

 









Legend :    VFR   Marginal VFR   IFR   Intensive IFR   Very Intensive IFR
Visi :
Ceiling :
>= 8 km
>= 3000ft
5 to 8 km
1000 to 3000 ft
1500m to 5 km
500 to 1000 ft
800 to 1500m
200 to 500 ft
< 800m
< 200 ft
Symbols :   Thunderstorms  Fog  Heavy snow  Heavy precipitations  Wind > 20 kt






- Airport Elevation : 29 ft
- IATA code : PSE


TJPS - Mercedita

CURRENT METAR :
  • 141455Z AUTO 18011KT 10SM FEW045 31/22 A2999 RMK AO2 PWINO

EXPIRED METARs :
  • 141435Z AUTO 17008G14KT 10SM FEW046 31/22 A2999 RMK AO2 PWINO
  • 141415Z AUTO 14009KT 10SM FEW043 31/21 A2998 RMK AO2 PWINO
  • 141355Z AUTO 11008KT 10SM FEW042 FEW048 31/21 A2999 RMK AO2 PWINO
  • 141335Z AUTO 07005KT 10SM CLR 30/21 A2999 RMK AO2 PWINO
  • 141315Z AUTO 00000KT 10SM CLR 29/21 A2999 RMK AO2 PWINO
  • 141255Z AUTO 00000KT 10SM CLR 29/20 A2999 RMK AO2 PWINO
  • 141235Z AUTO 13003KT 10SM CLR 28/20 A2998 RMK AO2 PWINO
  • 141215Z AUTO 00000KT 10SM CLR 27/20 A2998 RMK AO2 PWINO
  • 141155Z AUTO 00000KT 10SM CLR 26/21 A2998 RMK AO2 PWINO
  • 141135Z AUTO 00000KT 10SM CLR 25/21 A2997 RMK AO2 PWINO
  • 141115Z AUTO 00000KT 10SM FEW060 24/20 A2997 RMK AO2 PWINO
  • 141055Z AUTO 00000KT 10SM 23/20 A2997 RMK AO2 PWINO
  • 141035Z AUTO 00000KT 10SM A2996 RMK AO2 PWINO
  • 141015Z AUTO 00000KT 10SM CLR A2996 RMK AO2 PWINO

TAF TJPS
Valid from the 14 at 12:00 until the 15 at 12:00 UTC


141120Z 1412/1512 08005KT P6SM FEW035
FM141300 14012KT P6SM FEW030 SCT060
FM141700 15017KT P6SM -RA SCT025 SCT030 BKN050
FM142300 06010KT P6SM VCSH FEW030 SCT060
TJZS FIR / North America



MET'MAP, your aeronautical weather chart ! - Copyright ORBIFLY December 2007 - Disclaimer

ORBIFLY MET'MAP TEAM :

Programming & Development : Alexandra Zaïnal
Original concept : Baudouin d'Aumeries
Technical & hardware support : Manuel Goepfert
Assistance : Marc-Olivier Méhu




SOURCES & CREDITS :

   NOAA